Time;durP1;ratioP1;P1;durP2;ratioP2;P2;SDS_P1;SDS_P2;PMS_P1;PMS_P2;Temp;Humidity;BMP_temperature;BMP_pressure;BME280_temperature;BME280_humidity;BME280_pressure;Samples;Min_cycle;Max_cycle;Signal;HPM_P1;HPM_P2
2022/09/27 00:00:32;;;;;;;0.80;0.80;;;15.90;63.40;;;;;;5007177;28;20503;-47
2022/09/27 00:02:58;;;;;;;0.93;0.93;;;15.90;63.60;;;;;;5007485;28;20220;-47
2022/09/27 00:05:24;;;;;;;1.13;1.03;;;15.90;63.70;;;;;;5008779;28;20441;-48
2022/09/27 00:07:50;;;;;;;1.23;1.10;;;15.70;63.20;;;;;;5009818;28;20446;-47
2022/09/27 00:10:15;;;;;;;1.90;1.10;;;15.60;63.40;;;;;;5009154;28;20604;-47
2022/09/27 00:12:41;;;;;;;2.00;0.93;;;15.60;64.40;;;;;;5006317;28;20189;-47
2022/09/27 00:15:08;;;;;;;1.00;0.90;;;15.70;64.30;;;;;;5009254;28;20206;-47
2022/09/27 00:17:35;;;;;;;0.97;0.90;;;15.60;64.40;;;;;;5009445;28;20198;-47
2022/09/27 00:20:02;;;;;;;0.93;0.93;;;15.60;64.40;;;;;;5007648;28;20542;-47
2022/09/27 00:22:28;;;;;;;2.07;1.17;;;15.70;64.40;;;;;;5001446;28;20968;-46
2022/09/27 00:24:54;;;;;;;3.50;1.10;;;15.80;64.20;;;;;;5008058;28;20531;-46
2022/09/27 00:27:20;;;;;;;0.90;0.90;;;15.70;64.00;;;;;;5008808;28;20331;-46
2022/09/27 00:29:46;;;;;;;1.63;1.10;;;15.70;64.30;;;;;;5008505;28;20219;-46
2022/09/27 00:32:13;;;;;;;1.17;1.07;;;15.70;64.60;;;;;;5009289;28;20440;-46
2022/09/27 00:34:39;;;;;;;2.60;1.73;;;15.70;64.70;;;;;;5006921;28;20441;-47
2022/09/27 00:37:05;;;;;;;2.83;1.00;;;15.60;65.00;;;;;;5009227;28;20546;-46
2022/09/27 00:39:31;;;;;;;1.20;1.10;;;15.50;65.40;;;;;;5004194;28;20453;-46
2022/09/27 00:41:56;;;;;;;1.40;1.10;;;15.50;65.80;;;;;;5005628;28;20476;-47
2022/09/27 00:44:27;;;;;;;1.33;0.87;;;15.40;65.50;;;;;;5005671;28;20198;-46
2022/09/27 00:47:06;;;;;;;0.87;0.87;;;15.50;66.20;;;;;;5008065;28;20237;-46
2022/09/27 00:49:47;;;;;;;2.27;1.10;;;15.30;66.20;;;;;;5008709;28;20499;-46
2022/09/27 00:52:20;;;;;;;1.07;0.97;;;15.10;67.10;;;;;;5008183;28;20885;-47
2022/09/27 00:54:51;;;;;;;1.23;1.10;;;15.10;67.50;;;;;;5005243;28;20452;-47
2022/09/27 00:57:18;;;;;;;1.63;1.17;;;15.10;67.50;;;;;;5003018;28;20781;-48
2022/09/27 00:59:49;;;;;;;1.37;0.93;;;15.30;67.40;;;;;;5010746;28;20522;-50
2022/09/27 01:02:15;;;;;;;3.87;0.90;;;15.30;67.10;;;;;;5007523;28;20532;-50
2022/09/27 01:04:42;;;;;;;1.77;1.00;;;15.30;66.70;;;;;;5009927;28;20528;-49
2022/09/27 01:07:08;;;;;;;1.20;1.00;;;15.20;66.60;;;;;;5006706;28;20202;-51
2022/09/27 01:09:34;;;;;;;1.10;1.00;;;15.10;67.50;;;;;;5009055;28;20975;-51
2022/09/27 01:12:03;;;;;;;0.80;0.80;;;14.90;67.40;;;;;;5008953;28;20201;-48
2022/09/27 01:14:37;;;;;;;1.53;1.10;;;14.80;68.90;;;;;;5006746;28;20441;-47
2022/09/27 01:17:21;;;;;;;0.70;0.70;;;14.80;68.70;;;;;;5005895;28;20456;-51
2022/09/27 01:20:18;;;;;;;0.80;0.80;;;15.10;68.50;;;;;;5001362;28;20538;-51
2022/09/27 01:23:02;;;;;;;1.87;1.10;;;15.10;68.20;;;;;;5008189;28;20480;-51
2022/09/27 01:25:52;;;;;;;1.03;0.93;;;15.00;68.30;;;;;;5004727;28;20441;-51
2022/09/27 01:28:34;;;;;;;1.17;1.07;;;15.00;68.60;;;;;;5009908;28;20482;-47
2022/09/27 01:31:05;;;;;;;1.00;1.00;;;15.00;68.80;;;;;;5005362;28;20448;-48
2022/09/27 01:33:48;;;;;;;3.50;1.10;;;15.00;68.70;;;;;;5011447;28;20456;-48
2022/09/27 01:36:17;;;;;;;0.80;0.80;;;15.10;68.40;;;;;;5008016;28;20959;-47
2022/09/27 01:39:23;;;;;;;0.97;0.90;;;15.00;68.40;;;;;;5010849;28;20452;-46
2022/09/27 01:42:01;;;;;;;1.17;0.93;;;15.00;69.10;;;;;;4958467;28;20827;-47
2022/09/27 01:44:32;;;;;;;1.10;1.00;;;14.90;69.60;;;;;;5002021;28;20448;-46
2022/09/27 01:47:04;;;;;;;1.10;1.00;;;14.90;70.10;;;;;;5006209;28;20448;-46
2022/09/27 01:50:04;;;;;;;1.20;1.10;;;14.90;70.30;;;;;;5003161;28;20805;-46
2022/09/27 01:52:47;;;;;;;1.20;1.10;;;15.00;70.30;;;;;;5008725;28;20534;-51
2022/09/27 01:55:16;;;;;;;1.73;1.00;;;15.20;69.80;;;;;;5005231;28;20433;-48
2022/09/27 01:57:48;;;;;;;3.17;1.00;;;15.30;69.10;;;;;;5005215;28;20449;-47
2022/09/27 02:00:14;;;;;;;1.33;1.20;;;15.10;68.20;;;;;;5012022;28;20518;-51
2022/09/27 02:02:54;;;;;;;4.20;1.00;;;15.20;68.30;;;;;;5009536;28;20433;-49
2022/09/27 02:05:25;;;;;;;1.10;1.00;;;15.30;68.20;;;;;;5012948;28;20519;-51
2022/09/27 02:08:00;;;;;;;1.37;0.90;;;15.50;67.60;;;;;;5004559;28;20463;-47
2022/09/27 02:10:40;;;;;;;1.20;1.10;;;15.50;67.30;;;;;;5008262;28;20868;-51
2022/09/27 02:13:16;;;;;;;1.13;1.03;;;15.30;68.30;;;;;;5004502;28;20445;-48
2022/09/27 02:16:03;;;;;;;4.50;0.83;;;15.30;68.30;;;;;;5008043;28;20445;-48
2022/09/27 02:18:38;;;;;;;2.10;1.20;;;15.30;68.60;;;;;;5009940;28;21051;-46
2022/09/27 02:21:10;;;;;;;1.07;0.90;;;15.10;68.70;;;;;;5009405;28;20570;-48
2022/09/27 02:23:45;;;;;;;2.33;0.90;;;15.30;69.30;;;;;;5011062;28;20468;-49
2022/09/27 02:26:21;;;;;;;2.70;1.13;;;15.00;69.80;;;;;;5005492;28;20440;-50
2022/09/27 02:28:58;;;;;;;2.10;0.80;;;15.10;70.80;;;;;;5007039;28;20463;-51
2022/09/27 02:31:24;;;;;;;0.80;0.80;;;15.10;70.10;;;;;;5018405;28;20956;-46
2022/09/27 02:34:18;;;;;;;1.47;1.07;;;15.20;70.50;;;;;;5007523;28;20455;-50
2022/09/27 02:36:44;;;;;;;1.43;1.00;;;15.10;70.90;;;;;;5011109;28;20562;-51
2022/09/27 02:39:10;;;;;;;0.80;0.80;;;15.00;71.30;;;;;;5007153;28;20480;-47
2022/09/27 02:41:35;;;;;;;0.90;0.90;;;15.10;71.90;;;;;;5007223;28;20314;-50
2022/09/27 02:44:10;;;;;;;3.33;0.70;;;15.30;71.60;;;;;;5003073;28;20524;-47
2022/09/27 02:46:39;;;;;;;1.47;0.63;;;15.30;71.50;;;;;;5009253;28;20212;-47
2022/09/27 02:49:20;;;;;;;3.03;0.80;;;15.30;71.10;;;;;;5010249;28;20472;-47
2022/09/27 02:52:21;;;;;;;2.00;0.83;;;15.10;71.80;;;;;;5011132;28;20941;-51
2022/09/27 02:55:02;;;;;;;0.60;0.60;;;15.00;72.00;;;;;;5011268;28;21189;-48
2022/09/27 02:57:30;;;;;;;1.13;0.83;;;15.00;71.60;;;;;;5010474;28;20459;-47
2022/09/27 02:59:56;;;;;;;1.07;0.80;;;15.00;71.60;;;;;;5009022;28;20477;-48
2022/09/27 03:02:32;;;;;;;0.67;0.67;;;14.90;71.40;;;;;;5010739;28;20810;-48
2022/09/27 03:05:03;;;;;;;0.80;0.70;;;15.10;71.00;;;;;;5012284;28;20626;-51
2022/09/27 03:07:30;;;;;;;1.30;0.73;;;15.10;70.30;;;;;;5005777;28;20475;-48
2022/09/27 03:09:56;;;;;;;0.50;0.50;;;15.10;70.30;;;;;;5010306;28;20507;-50
2022/09/27 03:12:24;;;;;;;0.70;0.70;;;15.10;70.20;;;;;;5007976;28;20448;-51
2022/09/27 03:14:52;;;;;;;1.43;0.50;;;15.10;70.40;;;;;;5005435;28;20198;-49
2022/09/27 03:17:18;;;;;;;0.77;0.73;;;15.20;70.30;;;;;;5009872;28;20456;-50
2022/09/27 03:19:44;;;;;;;1.43;0.60;;;15.30;69.10;;;;;;5009142;28;20484;-51
2022/09/27 03:22:09;;;;;;;1.63;0.60;;;15.30;68.60;;;;;;5009701;28;20197;-50
2022/09/27 03:24:35;;;;;;;0.60;0.60;;;15.40;68.10;;;;;;5008018;28;20190;-51
2022/09/27 03:27:01;;;;;;;0.90;0.80;;;15.30;67.50;;;;;;5009790;28;20676;-51
2022/09/27 03:29:26;;;;;;;0.83;0.80;;;15.40;66.60;;;;;;5011165;28;20240;-50
2022/09/27 03:31:52;;;;;;;1.73;0.90;;;15.30;66.60;;;;;;5007374;28;20204;-48
2022/09/27 03:34:18;;;;;;;0.67;0.67;;;15.30;66.40;;;;;;5006334;28;20194;-49
2022/09/27 03:36:44;;;;;;;1.57;0.77;;;15.40;66.10;;;;;;5008376;28;20604;-51
2022/09/27 03:39:09;;;;;;;2.20;0.90;;;15.50;65.60;;;;;;5009762;28;20264;-48
2022/09/27 03:41:35;;;;;;;5.90;0.90;;;15.50;65.20;;;;;;5005898;28;20955;-48
2022/09/27 03:44:01;;;;;;;2.20;1.20;;;15.40;64.80;;;;;;5001623;28;20193;-51
2022/09/27 03:46:26;;;;;;;2.60;0.83;;;15.40;64.90;;;;;;5007086;28;20194;-50
2022/09/27 03:48:52;;;;;;;1.87;1.00;;;15.30;64.20;;;;;;5008313;28;20198;-51
2022/09/27 03:51:18;;;;;;;1.17;1.07;;;15.00;64.20;;;;;;5010034;28;20193;-47
2022/09/27 03:53:44;;;;;;;4.23;1.43;;;15.00;64.60;;;;;;5009434;28;20209;-50
2022/09/27 03:56:09;;;;;;;1.33;1.23;;;15.10;64.90;;;;;;5007107;28;20719;-51
2022/09/27 03:58:35;;;;;;;1.93;1.20;;;15.00;64.50;;;;;;5003613;28;20225;-51
2022/09/27 04:01:00;;;;;;;2.53;1.50;;;14.90;65.10;;;;;;5003855;28;20400;-50
2022/09/27 04:03:26;;;;;;;3.03;1.10;;;14.90;64.90;;;;;;5007894;28;20264;-47
2022/09/27 04:05:53;;;;;;;2.13;1.03;;;15.10;64.80;;;;;;5005921;28;20623;-49
2022/09/27 04:08:20;;;;;;;1.90;1.20;;;15.10;64.10;;;;;;5008470;28;20198;-50
2022/09/27 04:10:45;;;;;;;1.83;1.17;;;15.00;64.10;;;;;;5006410;28;20495;-48
2022/09/27 04:13:11;;;;;;;2.70;0.90;;;14.80;65.20;;;;;;5008675;28;20953;-50
2022/09/27 04:15:38;;;;;;;2.70;1.17;;;14.90;65.00;;;;;;5008358;28;20308;-50
2022/09/27 04:18:04;;;;;;;3.20;1.20;;;15.00;65.20;;;;;;5010083;28;20228;-46
2022/09/27 04:20:31;;;;;;;1.53;1.20;;;15.10;65.00;;;;;;5004420;28;21059;-50
2022/09/27 04:22:56;;;;;;;2.30;1.43;;;15.20;64.40;;;;;;5006868;28;20841;-51
2022/09/27 04:25:22;;;;;;;2.77;1.13;;;15.20;64.40;;;;;;5021046;28;20437;-47
2022/09/27 04:27:50;;;;;;;1.10;0.87;;;15.30;64.30;;;;;;5001021;28;20201;-51
2022/09/27 04:30:16;;;;;;;4.33;1.77;;;15.20;64.00;;;;;;5009382;28;20201;-47
2022/09/27 04:32:43;;;;;;;1.23;1.10;;;15.30;64.40;;;;;;5007157;28;20456;-50
2022/09/27 04:37:54;;;;;;;3.37;1.40;;;15.20;64.30;;;;;;5006743;28;20448;-49
2022/09/27 04:40:21;;;;;;;2.27;1.23;;;15.10;64.50;;;;;;5009122;28;20488;-47
2022/09/27 04:42:47;;;;;;;4.03;1.80;;;15.30;64.60;;;;;;5005931;28;21167;-47
2022/09/27 04:45:13;;;;;;;2.40;1.20;;;15.30;64.60;;;;;;5008621;28;20495;-46
2022/09/27 04:47:43;;;;;;;3.77;1.70;;;15.30;64.90;;;;;;5009141;28;20477;-46
2022/09/27 04:50:09;;;;;;;3.10;1.80;;;15.30;64.80;;;;;;5008785;28;20574;-47
2022/09/27 04:52:34;;;;;;;2.07;1.40;;;15.30;64.60;;;;;;5009291;28;20447;-46
2022/09/27 04:55:00;;;;;;;1.30;1.20;;;15.40;64.20;;;;;;5007937;28;20222;-46
2022/09/27 04:57:25;;;;;;;2.10;1.70;;;15.40;64.20;;;;;;5008779;28;20265;-47
2022/09/27 04:59:51;;;;;;;4.60;1.53;;;15.50;64.20;;;;;;5010274;28;22167;-47
2022/09/27 05:02:17;;;;;;;4.77;1.93;;;15.50;64.10;;;;;;5013038;28;20201;-46
2022/09/27 05:04:43;;;;;;;2.43;1.40;;;15.40;64.20;;;;;;5010432;28;20194;-46
2022/09/27 05:07:08;;;;;;;4.50;2.37;;;15.50;64.00;;;;;;5008725;28;20440;-47
2022/09/27 05:09:34;;;;;;;6.33;1.70;;;15.40;63.80;;;;;;5012405;28;20207;-46
2022/09/27 05:12:00;;;;;;;2.20;2.00;;;15.40;64.00;;;;;;5012056;28;20194;-46
2022/09/27 05:14:26;;;;;;;3.00;1.60;;;15.20;64.60;;;;;;5013374;28;20240;-46
2022/09/27 05:16:52;;;;;;;4.20;1.90;;;15.10;65.40;;;;;;5010283;28;20521;-47
2022/09/27 05:19:18;;;;;;;2.80;2.00;;;15.20;65.80;;;;;;5012636;28;20244;-46
2022/09/27 05:21:44;;;;;;;2.93;2.20;;;15.00;66.10;;;;;;4999553;28;20488;-47
2022/09/27 05:24:09;;;;;;;4.90;1.40;;;15.10;66.00;;;;;;5016598;28;20280;-46
2022/09/27 05:26:36;;;;;;;4.13;1.97;;;15.20;65.90;;;;;;5010139;28;20264;-46
2022/09/27 05:29:02;;;;;;;3.50;1.83;;;15.30;65.80;;;;;;5013861;28;20250;-45
2022/09/27 05:31:28;;;;;;;6.30;1.80;;;15.20;65.80;;;;;;5011696;28;20443;-46
2022/09/27 05:33:54;;;;;;;3.40;1.90;;;15.30;65.90;;;;;;5016033;28;20436;-46
2022/09/27 05:36:20;;;;;;;4.00;2.07;;;15.40;65.80;;;;;;5005006;28;20945;-46
2022/09/27 05:38:45;;;;;;;5.33;1.90;;;15.30;65.70;;;;;;5002740;28;20461;-46
2022/09/27 05:41:12;;;;;;;1.50;1.33;;;15.40;65.80;;;;;;5007538;28;20221;-51
2022/09/27 05:43:38;;;;;;;2.00;1.80;;;15.30;66.10;;;;;;5010195;28;20205;-46
2022/09/27 05:46:04;;;;;;;4.20;1.93;;;14.90;67.60;;;;;;5009094;28;21265;-46
2022/09/27 05:48:30;;;;;;;1.97;1.60;;;15.00;69.10;;;;;;5012313;28;20811;-47
2022/09/27 05:50:56;;;;;;;4.17;1.90;;;15.10;68.30;;;;;;5010071;28;20445;-46
2022/09/27 05:53:22;;;;;;;2.83;1.43;;;15.20;68.70;;;;;;5011934;28;20873;-47
2022/09/27 05:55:48;;;;;;;1.83;1.40;;;15.20;68.30;;;;;;5009156;28;20536;-47
2022/09/27 05:58:15;;;;;;;6.07;1.70;;;15.20;67.80;;;;;;5008441;28;20198;-47
2022/09/27 06:00:42;;;;;;;1.90;1.80;;;15.30;67.60;;;;;;5010033;28;21326;-47
2022/09/27 06:03:10;;;;;;;3.20;1.43;;;15.30;67.50;;;;;;5012223;28;20457;-48
2022/09/27 06:05:37;;;;;;;1.63;1.20;;;15.40;67.50;;;;;;5012369;28;20539;-46
2022/09/27 06:08:06;;;;;;;2.63;1.40;;;15.40;67.20;;;;;;5016899;28;20528;-47
2022/09/27 06:10:32;;;;;;;4.23;1.80;;;15.50;66.80;;;;;;5010282;28;20528;-46
2022/09/27 06:13:01;;;;;;;3.13;1.67;;;15.50;66.80;;;;;;5012474;28;20855;-46
2022/09/27 06:15:27;;;;;;;3.00;1.60;;;15.30;66.50;;;;;;5008682;28;20495;-50
2022/09/27 06:17:53;;;;;;;3.30;2.70;;;15.20;67.10;;;;;;5011098;28;20441;-48
2022/09/27 06:20:20;;;;;;;3.20;1.80;;;15.20;66.90;;;;;;5008927;28;20489;-51
2022/09/27 06:22:45;;;;;;;3.50;1.60;;;15.20;66.50;;;;;;5009478;28;21396;-50
2022/09/27 06:25:12;;;;;;;6.27;1.60;;;15.10;66.60;;;;;;5010916;28;20445;-51
2022/09/27 06:27:37;;;;;;;1.70;1.23;;;15.10;66.60;;;;;;5006887;28;20306;-50
2022/09/27 06:30:04;;;;;;;2.27;1.43;;;14.70;66.60;;;;;;5011989;28;20935;-47
2022/09/27 06:32:30;;;;;;;1.30;1.20;;;14.70;67.80;;;;;;5006148;28;20206;-48
2022/09/27 06:34:56;;;;;;;1.47;1.20;;;14.30;68.10;;;;;;5010315;28;20445;-47
2022/09/27 06:37:25;;;;;;;3.20;1.30;;;14.30;69.10;;;;;;5007001;28;20955;-46
2022/09/27 06:39:54;;;;;;;1.67;0.93;;;14.40;69.30;;;;;;5010360;28;20264;-47
2022/09/27 06:42:20;;;;;;;1.20;1.07;;;14.60;68.90;;;;;;5010316;28;20453;-47
2022/09/27 06:44:48;;;;;;;2.93;1.23;;;14.60;68.80;;;;;;5001642;28;20454;-46
2022/09/27 06:47:13;;;;;;;2.00;1.20;;;14.60;68.60;;;;;;5001445;28;20273;-46
2022/09/27 06:49:39;;;;;;;1.90;1.40;;;14.50;68.30;;;;;;5015295;28;20862;-46
2022/09/27 06:52:05;;;;;;;3.13;1.50;;;14.60;68.80;;;;;;5011245;28;20204;-46
2022/09/27 06:54:30;;;;;;;3.17;1.50;;;14.50;68.70;;;;;;5010733;28;20194;-47
2022/09/27 06:56:56;;;;;;;3.20;1.30;;;14.70;69.90;;;;;;5009633;28;20194;-47
2022/09/27 07:02:06;;;;;;;1.40;1.27;;;14.90;67.80;;;;;;5009849;28;20220;-46
2022/09/27 07:04:32;;;;;;;1.43;1.20;;;15.00;67.60;;;;;;5012431;28;20528;-46
2022/09/27 07:06:58;;;;;;;1.40;1.00;;;15.00;67.40;;;;;;5008336;28;20220;-47
2022/09/27 07:09:23;;;;;;;1.03;0.90;;;14.60;67.10;;;;;;5016386;28;20437;-47
2022/09/27 07:11:49;;;;;;;1.43;0.80;;;14.60;65.60;;;;;;5011457;28;20779;-48
2022/09/27 07:14:16;;;;;;;0.97;0.80;;;14.50;65.50;;;;;;5011799;28;20194;-48
2022/09/27 07:16:42;;;;;;;0.80;0.80;;;14.40;65.50;;;;;;5010154;28;20642;-47
2022/09/27 07:19:10;;;;;;;1.10;0.90;;;14.40;65.30;;;;;;5006103;28;20441;-47
2022/09/27 07:21:36;;;;;;;0.60;0.60;;;14.40;65.50;;;;;;5008272;28;20484;-50
2022/09/27 07:24:01;;;;;;;0.80;0.80;;;14.40;65.40;;;;;;5013058;28;21030;-46
2022/09/27 07:26:27;;;;;;;2.80;1.13;;;14.30;64.70;;;;;;5027321;28;20576;-46
2022/09/27 07:28:53;;;;;;;0.70;0.70;;;14.40;65.20;;;;;;5010249;28;20252;-46
2022/09/27 07:31:19;;;;;;;0.70;0.70;;;14.40;65.80;;;;;;5010427;28;20185;-48
2022/09/27 07:33:44;;;;;;;1.07;1.00;;;14.30;65.70;;;;;;5008219;28;20286;-47
2022/09/27 07:36:11;;;;;;;1.13;0.80;;;14.50;66.10;;;;;;5003100;28;20196;-48
2022/09/27 07:38:37;;;;;;;1.77;0.70;;;14.80;65.50;;;;;;5008073;28;20204;-47
2022/09/27 07:41:07;;;;;;;1.00;1.00;;;14.90;65.10;;;;;;5012179;28;20484;-47
2022/09/27 07:43:33;;;;;;;1.20;0.80;;;14.80;64.90;;;;;;5013334;28;20233;-47
2022/09/27 07:45:59;;;;;;;0.93;0.80;;;14.50;64.60;;;;;;5009005;28;20484;-46
2022/09/27 07:48:24;;;;;;;2.87;0.77;;;14.40;64.90;;;;;;5004525;28;20189;-47
2022/09/27 07:50:52;;;;;;;3.57;0.70;;;14.40;65.50;;;;;;5005053;28;20229;-47
2022/09/27 07:53:17;;;;;;;1.83;0.83;;;14.50;65.80;;;;;;4999471;28;20565;-48
2022/09/27 07:55:43;;;;;;;1.00;0.70;;;14.50;65.80;;;;;;4995577;28;20453;-47
2022/09/27 07:58:10;;;;;;;3.57;0.83;;;14.30;65.90;;;;;;5002881;28;20229;-48
2022/09/27 08:00:39;;;;;;;1.37;0.90;;;14.20;67.20;;;;;;5005149;28;20322;-49
2022/09/27 08:03:14;;;;;;;1.10;1.00;;;14.20;67.90;;;;;;5006380;28;20508;-48
2022/09/27 08:05:40;;;;;;;1.60;1.10;;;14.30;67.20;;;;;;5003912;28;20586;-48
2022/09/27 08:08:05;;;;;;;1.33;0.83;;;14.40;68.00;;;;;;5007421;28;20829;-47
2022/09/27 08:10:33;;;;;;;1.03;0.93;;;14.50;66.80;;;;;;5003611;28;20480;-48
2022/09/27 08:13:02;;;;;;;2.33;1.30;;;14.60;67.00;;;;;;5019413;28;20201;-48
2022/09/27 08:15:28;;;;;;;1.00;1.00;;;14.70;66.90;;;;;;5010002;28;21019;-47
2022/09/27 08:17:54;;;;;;;1.20;1.10;;;14.90;66.40;;;;;;5007732;28;20523;-48
2022/09/27 08:20:20;;;;;;;1.57;1.43;;;15.00;65.70;;;;;;5007704;28;20564;-48
2022/09/27 08:22:45;;;;;;;1.80;1.20;;;14.70;64.40;;;;;;5009056;28;20241;-47
2022/09/27 08:25:11;;;;;;;1.57;1.00;;;14.40;65.10;;;;;;5013266;28;20193;-47
2022/09/27 08:27:37;;;;;;;2.43;1.13;;;14.50;66.50;;;;;;5006825;28;20590;-48
2022/09/27 08:30:03;;;;;;;1.10;1.00;;;14.50;65.00;;;;;;5010312;28;20228;-48
2022/09/27 08:32:29;;;;;;;2.07;1.10;;;14.40;65.40;;;;;;5004587;28;20273;-47
2022/09/27 08:34:55;;;;;;;2.43;1.33;;;14.40;65.20;;;;;;5004831;28;21013;-48
2022/09/27 08:37:21;;;;;;;2.57;1.20;;;14.50;64.20;;;;;;5009789;28;20443;-49
2022/09/27 08:39:47;;;;;;;2.00;1.10;;;14.10;62.20;;;;;;5010743;28;20800;-47
2022/09/27 08:42:27;;;;;;;1.40;1.17;;;14.10;63.70;;;;;;5013242;28;20194;-49
2022/09/27 08:45:44;;;;;;;1.10;1.00;;;14.40;64.40;;;;;;5010100;28;20193;-48
2022/09/27 08:48:11;;;;;;;4.60;1.13;;;14.20;62.30;;;;;;4907257;29;20508;-48
2022/09/27 08:50:44;;;;;;;0.67;0.67;;;14.20;63.40;;;;;;4906024;29;21115;-48
2022/09/27 08:53:13;;;;;;;2.73;0.73;;;14.20;62.80;;;;;;4959537;28;20466;-47
2022/09/27 08:55:47;;;;;;;0.80;0.80;;;14.20;62.20;;;;;;5008575;28;20452;-47
2022/09/27 08:58:21;;;;;;;4.27;0.90;;;14.20;61.50;;;;;;5012728;28;20932;-48
2022/09/27 09:00:50;;;;;;;0.80;0.80;;;14.40;62.10;;;;;;5009109;28;20507;-48
2022/09/27 09:03:19;;;;;;;1.50;1.13;;;14.60;62.30;;;;;;5007628;28;21436;-48
2022/09/27 09:06:02;;;;;;;1.07;0.80;;;14.60;60.40;;;;;;5007017;28;21416;-47
2022/09/27 09:08:51;;;;;;;1.60;0.97;;;14.50;61.60;;;;;;5015820;28;20452;-48
2022/09/27 09:14:26;;;;;;;1.20;1.10;;;14.90;61.90;;;;;;5003638;28;20471;-49
2022/09/27 09:16:52;;;;;;;1.30;1.00;;;14.90;60.70;;;;;;5007905;28;20447;-47
2022/09/27 09:19:47;;;;;;;1.50;1.10;;;15.00;61.00;;;;;;5018382;28;20445;-51
2022/09/27 09:22:27;;;;;;;2.43;1.20;;;15.00;60.30;;;;;;5012547;28;20205;-48
2022/09/27 09:25:27;;;;;;;2.73;1.57;;;15.30;60.60;;;;;;5011970;28;22039;-48
2022/09/27 09:28:06;;;;;;;1.47;1.10;;;15.00;59.40;;;;;;5007712;28;20484;-47
2022/09/27 09:31:03;;;;;;;1.23;1.13;;;15.00;59.20;;;;;;5008226;28;20784;-48
2022/09/27 09:33:34;;;;;;;3.03;1.43;;;14.90;60.10;;;;;;5014125;28;20971;-47
2022/09/27 09:36:20;;;;;;;0.93;0.93;;;15.00;61.20;;;;;;5009071;28;20480;-48
2022/09/27 09:39:24;;;;;;;2.50;1.30;;;15.00;61.70;;;;;;5000265;28;20539;-49
2022/09/27 09:41:53;;;;;;;2.83;1.17;;;15.10;63.30;;;;;;5011237;28;20495;-48
2022/09/27 09:44:45;;;;;;;1.00;0.90;;;15.10;63.30;;;;;;5006114;28;20514;-48
2022/09/27 09:47:20;;;;;;;1.03;0.90;;;15.20;63.40;;;;;;5002289;28;20467;-49
2022/09/27 09:49:52;;;;;;;1.47;1.07;;;15.40;61.50;;;;;;5012621;28;20447;-51
2022/09/27 09:52:20;;;;;;;1.00;1.00;;;15.50;61.20;;;;;;5011615;28;20429;-50
2022/09/27 09:54:50;;;;;;;1.63;1.20;;;15.60;59.30;;;;;;5012213;28;20443;-47
2022/09/27 09:57:29;;;;;;;1.30;1.20;;;15.70;59.80;;;;;;5011814;28;20468;-47
2022/09/27 10:00:13;;;;;;;1.20;1.10;;;15.90;59.00;;;;;;5012650;28;20429;-48
2022/09/27 10:02:42;;;;;;;1.20;1.10;;;16.00;57.70;;;;;;5010407;28;20960;-48
2022/09/27 10:05:13;;;;;;;1.63;1.40;;;16.10;57.20;;;;;;5011810;28;20445;-47
2022/09/27 10:07:39;;;;;;;4.03;1.40;;;16.40;57.00;;;;;;5011755;28;20535;-47
2022/09/27 10:10:06;;;;;;;1.00;1.00;;;16.40;56.30;;;;;;5011610;28;20821;-49
2022/09/27 10:12:34;;;;;;;2.73;1.17;;;16.50;55.60;;;;;;5010480;28;20453;-47
2022/09/27 10:15:03;;;;;;;3.50;1.37;;;16.70;54.90;;;;;;5012609;28;20448;-48
2022/09/27 10:17:50;;;;;;;1.63;1.47;;;16.70;54.30;;;;;;5002195;28;20445;-47
2022/09/27 10:21:03;;;;;;;1.27;1.10;;;16.70;54.70;;;;;;5009962;28;20511;-49
2022/09/27 10:23:29;;;;;;;2.20;1.50;;;16.70;54.40;;;;;;4936365;29;20546;-48
2022/09/27 10:26:01;;;;;;;1.93;1.37;;;16.80;54.30;;;;;;5002468;28;20507;-49
2022/09/27 10:28:36;;;;;;;3.90;1.30;;;16.80;54.80;;;;;;5016945;28;20194;-48
2022/09/27 10:31:13;;;;;;;3.10;1.47;;;16.90;54.00;;;;;;5011183;28;20444;-49
2022/09/27 10:33:51;;;;;;;1.47;1.33;;;17.00;53.30;;;;;;5011279;28;20441;-47
2022/09/27 10:36:26;;;;;;;1.47;1.17;;;16.80;52.70;;;;;;5007960;28;20448;-48
2022/09/27 10:38:54;;;;;;;2.37;2.27;;;16.80;52.70;;;;;;5010133;28;20436;-49
2022/09/27 10:41:38;;;;;;;2.07;1.13;;;16.70;51.40;;;;;;5010417;28;20488;-47
2022/09/27 10:44:18;;;;;;;2.17;1.40;;;16.60;52.00;;;;;;5012010;28;20449;-48
2022/09/27 10:46:47;;;;;;;2.00;1.07;;;16.70;51.70;;;;;;5011226;28;20457;-48
2022/09/27 10:49:18;;;;;;;1.93;1.47;;;16.40;51.10;;;;;;5011936;28;20448;-47
2022/09/27 10:51:48;;;;;;;2.80;1.10;;;16.40;52.20;;;;;;5010001;28;20544;-48
2022/09/27 10:54:32;;;;;;;3.90;1.70;;;16.50;52.00;;;;;;5002351;28;20503;-47
2022/09/27 10:57:20;;;;;;;2.57;1.27;;;16.40;51.90;;;;;;5010946;28;20810;-47
2022/09/27 10:59:54;;;;;;;2.60;1.10;;;16.20;53.50;;;;;;5011734;28;20456;-47
2022/09/27 11:02:28;;;;;;;1.70;1.10;;;16.30;55.40;;;;;;5005223;28;20532;-48
2022/09/27 11:05:11;;;;;;;1.50;1.37;;;16.30;55.40;;;;;;5008675;28;20472;-48
2022/09/27 11:07:51;;;;;;;3.27;1.30;;;16.40;55.60;;;;;;5004516;28;21158;-49
2022/09/27 11:10:31;;;;;;;1.73;1.40;;;16.20;55.20;;;;;;5005840;28;20943;-46
2022/09/27 11:13:07;;;;;;;1.37;1.27;;;16.20;55.70;;;;;;5008319;28;20460;-46
2022/09/27 11:15:41;;;;;;;2.07;1.23;;;16.10;55.80;;;;;;5004125;28;20451;-49
2022/09/27 11:18:17;;;;;;;1.40;1.20;;;16.20;55.40;;;;;;4996996;28;20567;-48
2022/09/27 11:20:52;;;;;;;1.97;1.70;;;16.40;55.20;;;;;;5009746;28;20488;-46
2022/09/27 11:23:18;;;;;;;4.27;1.30;;;16.50;54.50;;;;;;5014255;28;20490;-47
2022/09/27 11:26:07;;;;;;;1.23;1.13;;;16.40;53.80;;;;;;5009207;28;20445;-48
2022/09/27 11:28:36;;;;;;;2.20;1.00;;;16.30;53.50;;;;;;5002723;28;20225;-48
2022/09/27 11:31:14;;;;;;;2.47;1.10;;;16.30;53.30;;;;;;5004750;28;20459;-49
2022/09/27 11:34:00;;;;;;;2.03;1.30;;;16.20;53.70;;;;;;5006160;28;20445;-49
2022/09/27 11:36:32;;;;;;;2.03;1.30;;;16.20;54.00;;;;;;5005491;28;20445;-49
2022/09/27 11:39:06;;;;;;;2.80;1.37;;;16.30;54.00;;;;;;5010591;28;20527;-52
2022/09/27 11:42:08;;;;;;;1.50;1.20;;;16.50;54.10;;;;;;5009580;28;20566;-48
2022/09/27 11:45:17;;;;;;;2.40;1.20;;;16.50;53.80;;;;;;5008468;28;20457;-48
2022/09/27 11:47:55;;;;;;;2.73;1.20;;;16.50;54.10;;;;;;4920130;29;20497;-52
2022/09/27 11:50:36;;;;;;;3.50;1.20;;;16.70;54.30;;;;;;5001667;28;20456;-48
2022/09/27 11:53:32;;;;;;;3.07;1.20;;;16.70;52.20;;;;;;5006081;28;20460;-48
2022/09/27 11:56:22;;;;;;;2.40;1.00;;;16.30;51.50;;;;;;5008050;28;20449;-48
2022/09/27 11:59:00;;;;;;;2.40;0.90;;;16.30;52.30;;;;;;5001740;28;20451;-53
2022/09/27 12:01:25;;;;;;;1.20;0.70;;;16.10;51.60;;;;;;5006521;28;20523;-48
2022/09/27 12:04:34;;;;;;;1.57;0.80;;;15.90;51.80;;;;;;5004114;28;20469;-48
2022/09/27 12:07:00;;;;;;;3.67;1.50;;;15.80;52.50;;;;;;5005465;28;20201;-49
2022/09/27 12:09:34;;;;;;;0.90;0.90;;;15.90;52.30;;;;;;5007865;28;20825;-50
2022/09/27 12:12:11;;;;;;;2.20;1.20;;;16.00;53.90;;;;;;5000404;28;20245;-49
2022/09/27 12:14:44;;;;;;;1.17;0.80;;;15.50;55.60;;;;;;5009787;28;20519;-49
2022/09/27 12:17:22;;;;;;;2.00;0.80;;;15.00;57.90;;;;;;5005761;28;20503;-48
2022/09/27 12:19:55;;;;;;;1.13;0.93;;;14.70;59.20;;;;;;5004109;28;20484;-50
2022/09/27 12:22:28;;;;;;;1.40;0.80;;;14.70;61.30;;;;;;5007582;28;20821;-48
2022/09/27 12:24:54;;;;;;;6.90;0.90;;;14.70;62.20;;;;;;5010009;28;20453;-48
2022/09/27 12:27:42;;;;;;;2.00;0.80;;;14.90;61.90;;;;;;5007583;28;20448;-49
2022/09/27 12:30:12;;;;;;;1.33;0.80;;;14.90;60.80;;;;;;5009173;28;20205;-48
2022/09/27 12:33:05;;;;;;;1.13;0.73;;;15.00;61.00;;;;;;5005998;28;20471;-49
2022/09/27 12:35:39;;;;;;;2.57;0.97;;;14.90;61.00;;;;;;5000455;28;20453;-49
2022/09/27 12:38:11;;;;;;;1.10;0.90;;;14.90;61.40;;;;;;5010842;28;20865;-49
2022/09/27 12:40:43;;;;;;;2.20;0.70;;;14.90;61.60;;;;;;5009683;28;20495;-48
2022/09/27 12:43:17;;;;;;;1.23;1.00;;;15.10;62.00;;;;;;5010318;28;20444;-50
2022/09/27 12:46:11;;;;;;;3.57;0.77;;;15.10;62.20;;;;;;5004758;28;20444;-53
2022/09/27 12:48:59;;;;;;;1.60;1.37;;;15.30;62.40;;;;;;5009689;28;20464;-48
2022/09/27 12:51:32;;;;;;;0.80;0.80;;;15.00;62.20;;;;;;5009019;28;20452;-48
2022/09/27 12:54:12;;;;;;;1.03;0.90;;;14.90;62.80;;;;;;5011132;28;20417;-48
2022/09/27 12:57:24;;;;;;;1.73;0.90;;;15.00;63.20;;;;;;5010167;28;20804;-48
2022/09/27 13:00:11;;;;;;;0.70;0.70;;;15.20;63.30;;;;;;4981257;28;20798;-49
2022/09/27 13:03:09;;;;;;;0.70;0.70;;;15.40;63.20;;;;;;5009660;28;20460;-48
2022/09/27 13:05:50;;;;;;;0.77;0.77;;;15.50;62.80;;;;;;5010149;28;20425;-49
2022/09/27 13:08:44;;;;;;;1.00;0.70;;;15.60;62.20;;;;;;5011312;28;20439;-49
2022/09/27 13:11:43;;;;;;;0.70;0.67;;;15.60;61.90;;;;;;5007237;28;20811;-48
2022/09/27 13:14:18;;;;;;;1.43;0.80;;;15.80;62.30;;;;;;5011163;28;20441;-51
2022/09/27 13:16:46;;;;;;;0.90;0.80;;;15.70;61.60;;;;;;5010374;28;20920;-48
2022/09/27 13:19:34;;;;;;;1.33;1.00;;;15.70;61.50;;;;;;5010984;28;20456;-48
2022/09/27 13:22:01;;;;;;;1.10;0.87;;;15.90;61.80;;;;;;5012081;28;20483;-49